Historyczne dane pomiarowe

Dodano dane terminowe – wersja testowa.

Dane z okresu 1951-2019

Wersja bazy: 1.34 [2019-03-16, lista zmian], aktualizacja planowana na 2019-04-15

Dane meteo z obszaru Polski uzyskane na podstawie danych udostępnionych przez Instytut Meteorologii i Gospodarki Wodnej – Państwowy Instytut Badawczy.

 

Wybierz Datę:    

       

TemperaturaWilgotnośćZachmurzenieWiatrCiśnienieWidzialnośćZjawiska
 Data    tng td wb rh cc ccl cl cm ch dir g1 g2 mslp ppp      
1999-07-27 00:00:00 13.0--- 10.5 11.685wxwxwx2wx--1019.6 997.3 0.0---wx
1999-07-27 01:00:00 12.8--- 10.3 11.485wxwxwx2wx--1019.8 997.4----wx
1999-07-27 02:00:00 12.4--- 10.2 11.287wxwxwx2wx--1019.6 997.2----wx
1999-07-27 03:00:00 12.0--- 9.8 10.886wxwxwx2wx--1019.5 997.1----wx
1999-07-27 04:00:00 13.6--- 11.1 12.285wxwxwx2wx--1019.5 997.2----wx
1999-07-27 05:00:00 14.4--- 10.9 12.479wxwxwx2wx--1019.5 997.3----wx
1999-07-27 06:00:00 16.0--- 11.9 13.677wxwx2wx--1019.4 997.3 0.0---wx
1999-07-27 07:00:00 18.1--- 11.0 14.063wxwx3wx--1019.0 997.1----wx
1999-07-27 08:00:00 20.0--- 11.9 15.260wxwx3wx--1019.1 997.3----wx
1999-07-27 09:00:00 20.5--- 11.9 15.458wxwxwx3wx--1019.1 997.3----wx
1999-07-27 10:00:00 21.6--- 12.3 16.055wxwxwx3wx--1019.0 997.3----wx
1999-07-27 11:00:00 21.8--- 12.2 16.054wxwxwx3wx--1018.8 997.1----wx
1999-07-27 12:00:00 22.8--- 11.0 15.847wxwxwx3wx--1018.6 997.0 0.0---wx
1999-07-27 13:00:00 22.2--- 10.6 15.448wxwxwx3wx--1018.4 996.8----wx
1999-07-27 14:00:00 23.6--- 10.8 16.044wxwxwx5wx--1018.0 996.5----wx
1999-07-27 15:00:00 23.5--- 10.9 16.045wxwxwx5wx--1017.9 996.4----wx
1999-07-27 16:00:00 22.7--- 10.6 15.646wxwxwx4wx--1018.0 996.4----wx
1999-07-27 17:00:00 22.4--- 10.0 15.245wxwxwx4wx--1018.0 996.4----wx
1999-07-27 18:00:00 20.8--- 10.5 14.852wxwxwx4wx--1018.5 996.8 0.0---wx
1999-07-27 19:00:00 17.8--- 10.5 13.662wxwxwx4wx--1019.3 997.3----wx
1999-07-27 20:00:00 17.4--- 10.8 13.665wxwxwx5wx--1019.5 997.5----wx
1999-07-27 21:00:00 17.1--- 8.4 12.356wxwxwx5wx--1019.9 997.9----wx
1999-07-27 22:00:00 16.4--- 8.4 12.059wxwxwx4wx--1020.1 998.0----wx
1999-07-27 23:00:00 16.0--- 11.9 13.677wxwxwx4wx--1020.1 998.0----wx

 

Źródłem pochodzenia danych jest Instytut Meteorologii i Gospodarki Wodnej – Państwowy Instytut Badawczy. Dane Instytutu Meteorologii i Gospodarki Wodnej – Państwowego Instytutu Badawczego zostały przetworzone.

Dane źródłowe można odnaleźć na stronie https://dane.imgw.pl